Time;durP1;ratioP1;P1;durP2;ratioP2;P2;SDS_P1;SDS_P2;PMS_P1;PMS_P2;Temp;Humidity;BMP_temperature;BMP_pressure;BME280_temperature;BME280_humidity;BME280_pressure;Samples;Min_cycle;Max_cycle;Signal;HPM_P1;HPM_P2
2021/01/11 00:02:15;;;;;;;18.23;11.35;;;-5.90;99.90;;;;;;5018366;28;20184;-92
2021/01/11 00:04:41;;;;;;;16.73;10.10;;;-5.90;99.90;;;;;;5018557;28;20211;-94
2021/01/11 00:07:09;;;;;;;19.60;12.55;;;-5.90;99.90;;;;;;5018794;28;20371;-96
2021/01/11 00:09:35;;;;;;;16.83;10.98;;;-5.90;99.90;;;;;;5018395;28;20215;-93
2021/01/11 00:12:02;;;;;;;18.00;11.75;;;-5.90;99.90;;;;;;5018128;28;20194;-93
2021/01/11 00:14:28;;;;;;;16.00;10.60;;;-5.80;99.90;;;;;;5017900;28;20182;-92
2021/01/11 00:16:57;;;;;;;16.77;11.18;;;-5.80;99.90;;;;;;5018552;28;20330;-93
2021/01/11 00:19:24;;;;;;;18.80;10.85;;;-5.80;99.90;;;;;;5017473;28;20270;-95
2021/01/11 00:21:50;;;;;;;18.75;11.43;;;-5.80;99.90;;;;;;5010882;28;20214;-92
2021/01/11 00:26:49;;;;;;;16.23;10.63;;;-5.90;99.90;;;;;;5015143;23;20227;-73
2021/01/11 00:29:15;;;;;;;17.10;10.43;;;-6.00;99.90;;;;;;5010677;28;20202;-71
2021/01/11 00:31:42;;;;;;;17.27;10.60;;;-6.00;99.90;;;;;;5010139;28;20206;-72
2021/01/11 00:34:09;;;;;;;16.77;10.20;;;-6.10;99.90;;;;;;5010674;28;20241;-72
2021/01/11 00:36:35;;;;;;;15.38;10.52;;;-6.10;99.90;;;;;;5010711;28;20753;-74
2021/01/11 00:39:02;;;;;;;15.90;10.75;;;-6.10;99.90;;;;;;5010536;28;20289;-74
2021/01/11 00:41:28;;;;;;;18.85;10.75;;;-6.20;99.90;;;;;;5010762;28;20206;-76
2021/01/11 00:43:54;;;;;;;17.63;11.75;;;-6.20;99.90;;;;;;5009918;28;20276;-76
2021/01/11 00:46:21;;;;;;;18.10;11.60;;;-6.30;99.90;;;;;;5010430;28;20729;-74
2021/01/11 00:48:48;;;;;;;18.63;10.93;;;-6.30;99.90;;;;;;5010310;28;20211;-74
2021/01/11 00:51:15;;;;;;;17.67;10.65;;;-6.30;99.90;;;;;;5010251;28;20911;-74
2021/01/11 00:53:44;;;;;;;19.20;11.13;;;-6.30;99.90;;;;;;4982747;28;20739;-73
2021/01/11 00:56:10;;;;;;;16.30;10.25;;;-6.30;99.90;;;;;;4971279;28;20206;-73
2021/01/11 00:58:36;;;;;;;19.85;11.00;;;-6.40;99.90;;;;;;4971323;28;20215;-72
2021/01/11 01:01:03;;;;;;;14.63;10.10;;;-6.40;99.90;;;;;;4971245;28;20358;-72
2021/01/11 01:03:29;;;;;;;14.32;10.40;;;-6.50;99.90;;;;;;4973242;28;20200;-73
2021/01/11 01:05:55;;;;;;;16.85;9.45;;;-6.40;99.90;;;;;;4971289;28;20224;-73
2021/01/11 01:08:22;;;;;;;16.25;9.70;;;-6.40;99.90;;;;;;4971036;28;20258;-72
2021/01/11 01:10:48;;;;;;;15.88;9.85;;;-6.40;99.90;;;;;;4971121;28;20223;-74
2021/01/11 01:13:15;;;;;;;15.48;10.02;;;-6.50;99.90;;;;;;4970497;28;20207;-73
2021/01/11 01:15:41;;;;;;;15.82;9.38;;;-6.50;99.90;;;;;;4970900;28;20224;-72
2021/01/11 01:18:08;;;;;;;14.70;9.45;;;-6.50;99.90;;;;;;4970702;28;20613;-72
2021/01/11 01:20:34;;;;;;;14.50;9.75;;;-6.50;99.90;;;;;;4968937;28;20215;-73
2021/01/11 01:23:00;;;;;;;14.52;9.23;;;-6.50;99.90;;;;;;4976552;28;20203;-75
2021/01/11 01:25:27;;;;;;;14.75;9.45;;;-6.40;99.90;;;;;;4989909;28;20230;-73
2021/01/11 01:27:54;;;;;;;13.73;9.80;;;-6.50;99.90;;;;;;4989788;28;20206;-72
2021/01/11 01:30:21;;;;;;;14.88;9.90;;;-6.50;99.90;;;;;;4990055;28;20207;-73
2021/01/11 01:32:47;;;;;;;17.60;9.23;;;-6.50;99.90;;;;;;4990104;28;20238;-72
2021/01/11 01:35:13;;;;;;;19.17;9.15;;;-6.50;99.90;;;;;;4986675;28;20238;-71
2021/01/11 01:37:40;;;;;;;17.05;9.70;;;-6.60;99.90;;;;;;4989516;28;20211;-73
2021/01/11 01:40:07;;;;;;;15.50;9.38;;;-6.60;99.90;;;;;;4989891;28;20207;-72
2021/01/11 01:42:35;;;;;;;12.20;8.30;;;-6.60;99.90;;;;;;4989404;28;20257;-72
2021/01/11 01:45:01;;;;;;;13.30;8.13;;;-6.60;99.90;;;;;;4990039;28;20228;-72
2021/01/11 01:47:28;;;;;;;13.88;9.48;;;-6.70;99.90;;;;;;4989648;28;20206;-72
2021/01/11 01:49:54;;;;;;;13.35;8.90;;;-6.70;99.90;;;;;;4989904;28;20204;-72
2021/01/11 01:52:21;;;;;;;15.85;9.38;;;-6.70;99.90;;;;;;4988390;28;20335;-75
2021/01/11 01:54:49;;;;;;;13.32;9.38;;;-6.70;99.90;;;;;;4970132;28;20279;-74
2021/01/11 01:57:15;;;;;;;14.50;9.63;;;-6.70;99.90;;;;;;4970334;28;20204;-73
2021/01/11 01:59:47;;;;;;;16.40;9.18;;;-6.70;99.90;;;;;;4969560;28;20283;-72
2021/01/11 02:02:13;;;;;;;16.45;9.05;;;-6.80;99.90;;;;;;4970291;28;20582;-74
2021/01/11 02:04:40;;;;;;;16.58;9.45;;;-6.80;99.90;;;;;;4969959;28;20227;-74
2021/01/11 02:07:12;;;;;;;16.83;9.20;;;-6.80;99.90;;;;;;4970356;28;20204;-73
2021/01/11 02:09:44;;;;;;;15.38;9.50;;;-6.80;99.90;;;;;;4969925;28;20215;-73
2021/01/11 02:12:17;;;;;;;15.18;9.35;;;-6.80;99.90;;;;;;4969838;28;20207;-74
2021/01/11 02:14:55;;;;;;;17.92;9.95;;;-6.70;99.90;;;;;;4969696;28;20228;-74
2021/01/11 02:17:28;;;;;;;14.27;9.25;;;-6.80;99.90;;;;;;4970159;28;20207;-74
2021/01/11 02:20:55;;;;;;;14.90;9.32;;;-6.80;99.90;;;;;;4970113;28;20211;-73
2021/01/11 02:23:59;;;;;;;17.58;9.52;;;-6.80;99.90;;;;;;4978159;28;20927;-73
2021/01/11 02:26:41;;;;;;;13.50;8.70;;;-6.90;99.90;;;;;;4987044;28;20725;-73
2021/01/11 02:29:21;;;;;;;17.73;9.98;;;-6.90;99.90;;;;;;4989434;28;20207;-73
2021/01/11 02:31:50;;;;;;;14.27;8.63;;;-6.80;99.90;;;;;;4988602;28;20211;-73
2021/01/11 02:34:18;;;;;;;14.63;8.25;;;-6.80;99.90;;;;;;4989592;28;20231;-73
2021/01/11 02:36:44;;;;;;;19.35;9.45;;;-6.80;99.90;;;;;;4989119;28;20613;-73
2021/01/11 02:39:11;;;;;;;16.30;10.18;;;-6.80;99.90;;;;;;4989478;28;20675;-73
2021/01/11 02:41:37;;;;;;;13.80;9.00;;;-6.80;99.90;;;;;;4988664;28;20211;-73
2021/01/11 02:44:04;;;;;;;17.08;10.65;;;-6.80;99.90;;;;;;4989439;28;20239;-73
2021/01/11 02:46:30;;;;;;;14.70;9.20;;;-6.80;99.90;;;;;;4989213;28;20223;-73
2021/01/11 02:49:00;;;;;;;16.33;9.82;;;-6.80;99.90;;;;;;4989211;28;20203;-74
2021/01/11 02:51:33;;;;;;;13.77;8.45;;;-6.80;99.90;;;;;;4989091;28;20207;-74
2021/01/11 02:54:12;;;;;;;18.02;9.57;;;-6.90;99.90;;;;;;4974562;28;20251;-74
2021/01/11 02:56:45;;;;;;;13.55;8.70;;;-6.80;99.90;;;;;;4969533;28;20212;-74
2021/01/11 02:59:18;;;;;;;17.85;10.15;;;-6.80;99.90;;;;;;4969488;28;20204;-74
2021/01/11 03:01:53;;;;;;;18.00;9.90;;;-6.90;99.90;;;;;;4969054;28;20212;-74
2021/01/11 03:04:22;;;;;;;11.82;8.20;;;-7.00;99.90;;;;;;4969695;28;20278;-73
2021/01/11 03:06:56;;;;;;;15.60;8.75;;;-7.00;99.90;;;;;;4969581;28;20290;-74
2021/01/11 03:09:23;;;;;;;16.58;8.57;;;-7.00;99.90;;;;;;4969677;28;20214;-74
2021/01/11 03:11:49;;;;;;;14.50;9.75;;;-7.10;99.90;;;;;;4970733;28;20204;-73
2021/01/11 03:14:16;;;;;;;20.75;10.85;;;-7.10;99.90;;;;;;4973274;28;20711;-73
2021/01/11 03:16:42;;;;;;;13.65;8.98;;;-7.10;99.90;;;;;;4972751;28;20200;-73
2021/01/11 03:19:08;;;;;;;15.40;8.80;;;-7.10;99.90;;;;;;4973347;28;20239;-75
2021/01/11 03:21:35;;;;;;;17.30;8.77;;;-7.10;99.90;;;;;;4972336;28;20212;-73
2021/01/11 03:24:02;;;;;;;17.05;9.50;;;-7.10;99.90;;;;;;4980882;28;20220;-75
2021/01/11 03:26:28;;;;;;;16.30;9.60;;;-7.20;99.90;;;;;;4972529;28;20224;-75
2021/01/11 03:28:54;;;;;;;13.25;8.60;;;-7.20;99.90;;;;;;4972993;28;20211;-74
2021/01/11 03:31:21;;;;;;;18.95;8.70;;;-7.10;99.90;;;;;;4973033;28;20254;-73
2021/01/11 03:33:47;;;;;;;15.00;8.45;;;-7.10;99.90;;;;;;4972331;28;20234;-75
2021/01/11 03:36:14;;;;;;;14.32;9.30;;;-7.10;99.90;;;;;;4973176;28;20200;-74
2021/01/11 03:38:41;;;;;;;16.08;9.05;;;-7.10;99.90;;;;;;4972436;28;20208;-74
2021/01/11 03:41:08;;;;;;;16.50;8.93;;;-7.10;99.90;;;;;;4972998;28;20204;-72
2021/01/11 03:43:37;;;;;;;16.25;9.63;;;-7.10;99.90;;;;;;4972188;28;20203;-72
2021/01/11 03:46:03;;;;;;;17.30;8.90;;;-7.20;99.90;;;;;;4973035;28;20643;-72
2021/01/11 03:48:29;;;;;;;13.73;8.75;;;-7.20;99.90;;;;;;4972426;28;20203;-73
2021/01/11 03:50:56;;;;;;;19.30;8.15;;;-7.30;99.90;;;;;;4972621;28;20200;-73
2021/01/11 03:53:22;;;;;;;14.23;8.43;;;-7.30;99.90;;;;;;4980610;28;20207;-74
2021/01/11 03:55:49;;;;;;;15.68;10.13;;;-7.30;99.90;;;;;;4991417;28;20682;-76
2021/01/11 03:58:15;;;;;;;15.80;9.50;;;-7.30;99.90;;;;;;4991800;28;20207;-74
2021/01/11 04:00:41;;;;;;;18.33;10.40;;;-7.30;99.90;;;;;;4991379;28;20218;-74
2021/01/11 04:03:07;;;;;;;12.98;8.07;;;-7.30;99.90;;;;;;4991374;28;20211;-74
2021/01/11 04:05:35;;;;;;;15.93;9.25;;;-7.30;99.90;;;;;;4991324;28;20223;-74
2021/01/11 04:08:01;;;;;;;17.17;10.85;;;-7.30;99.90;;;;;;4991732;28;20254;-74
2021/01/11 04:10:27;;;;;;;14.02;8.45;;;-7.30;99.90;;;;;;4991658;28;20646;-74
2021/01/11 04:12:54;;;;;;;15.40;9.20;;;-7.40;99.90;;;;;;4990967;28;20207;-75
2021/01/11 04:15:21;;;;;;;16.05;8.50;;;-7.40;99.90;;;;;;4991538;28;20246;-75
2021/01/11 04:17:49;;;;;;;15.30;9.05;;;-7.40;99.90;;;;;;4991109;28;20207;-70
2021/01/11 04:20:15;;;;;;;13.93;10.00;;;-7.40;99.90;;;;;;4991576;28;20199;-70
2021/01/11 04:22:42;;;;;;;16.30;9.40;;;-7.40;99.90;;;;;;4986366;28;20271;-71
2021/01/11 04:25:09;;;;;;;18.25;11.30;;;-7.40;99.90;;;;;;4971633;28;20227;-71
2021/01/11 04:27:35;;;;;;;16.52;9.15;;;-7.40;99.90;;;;;;4971920;28;20208;-72
2021/01/11 04:30:03;;;;;;;18.02;10.57;;;-7.40;99.90;;;;;;4971775;28;20211;-71
2021/01/11 04:32:29;;;;;;;17.40;9.70;;;-7.30;99.90;;;;;;4971481;28;20206;-71
2021/01/11 04:34:56;;;;;;;15.27;8.63;;;-7.30;99.90;;;;;;4971939;28;20223;-71
2021/01/11 04:37:22;;;;;;;18.83;10.05;;;-7.30;99.90;;;;;;4972158;28;20204;-71
2021/01/11 04:39:48;;;;;;;13.05;8.02;;;-7.40;99.90;;;;;;4976571;28;20203;-74
2021/01/11 04:42:19;;;;;;;16.65;8.90;;;-7.40;99.90;;;;;;4981003;28;20192;-73
2021/01/11 04:44:46;;;;;;;14.50;9.20;;;-7.50;99.90;;;;;;4980805;28;20220;-73
2021/01/11 04:47:13;;;;;;;16.50;10.13;;;-7.50;99.90;;;;;;4981058;28;20214;-74
2021/01/11 04:49:40;;;;;;;17.58;10.23;;;-7.50;99.90;;;;;;4982646;28;20202;-73
2021/01/11 04:52:08;;;;;;;19.65;10.50;;;-7.50;99.90;;;;;;4980649;28;20302;-73
2021/01/11 04:54:37;;;;;;;15.90;9.65;;;-7.50;99.90;;;;;;4985090;28;20262;-72
2021/01/11 04:57:03;;;;;;;18.58;10.45;;;-7.60;99.90;;;;;;4976779;28;20200;-73
2021/01/11 04:59:34;;;;;;;19.15;9.88;;;-7.50;99.90;;;;;;4979896;28;20192;-73
2021/01/11 05:02:02;;;;;;;15.48;8.55;;;-7.50;99.90;;;;;;4981057;28;20207;-72
2021/01/11 05:04:29;;;;;;;16.55;9.85;;;-7.50;99.90;;;;;;5008432;23;20258;-71
2021/01/11 05:07:02;;;;;;;15.27;8.52;;;-7.50;99.90;;;;;;5003325;28;20596;-70
2021/01/11 05:09:29;;;;;;;18.48;10.10;;;-7.50;99.90;;;;;;5008582;28;20297;-70
2021/01/11 05:11:56;;;;;;;13.15;8.70;;;-7.50;99.90;;;;;;5009629;28;20231;-70
2021/01/11 05:14:22;;;;;;;18.73;10.50;;;-7.50;99.90;;;;;;5009927;28;20714;-70
2021/01/11 05:17:05;;;;;;;24.92;9.77;;;-7.60;99.90;;;;;;5010566;28;20257;-70
2021/01/11 05:19:32;;;;;;;22.52;10.15;;;-7.50;99.90;;;;;;5009954;28;20316;-70
2021/01/11 05:21:59;;;;;;;17.15;10.27;;;-7.60;99.90;;;;;;5009010;28;20206;-70
2021/01/11 05:24:32;;;;;;;22.98;10.85;;;-7.60;99.90;;;;;;4992203;28;20227;-70
2021/01/11 05:26:59;;;;;;;15.45;8.88;;;-7.60;99.90;;;;;;4989703;28;20277;-70
2021/01/11 05:29:26;;;;;;;19.50;10.32;;;-7.60;99.90;;;;;;4990090;28;20277;-72
2021/01/11 05:31:57;;;;;;;19.92;9.93;;;-7.60;99.90;;;;;;4988766;28;20214;-69
2021/01/11 05:34:23;;;;;;;19.70;9.90;;;-7.70;99.90;;;;;;4989496;28;20219;-70
2021/01/11 05:36:51;;;;;;;18.77;9.75;;;-7.70;99.90;;;;;;4988998;28;20200;-71
2021/01/11 05:39:25;;;;;;;18.55;9.57;;;-7.70;99.90;;;;;;4989832;28;20203;-70
2021/01/11 05:41:51;;;;;;;16.80;9.75;;;-7.60;99.90;;;;;;4988568;28;20792;-70
2021/01/11 05:44:17;;;;;;;17.70;10.30;;;-7.50;99.90;;;;;;4989692;28;20231;-69
2021/01/11 05:46:46;;;;;;;18.23;10.70;;;-7.50;99.90;;;;;;4989426;28;20219;-69
2021/01/11 05:49:14;;;;;;;20.33;10.15;;;-7.60;99.90;;;;;;4989533;28;20226;-71
2021/01/11 05:51:40;;;;;;;18.77;10.30;;;-7.60;99.90;;;;;;4989129;28;20754;-71
2021/01/11 05:54:24;;;;;;;15.57;9.05;;;-7.60;99.90;;;;;;4992637;28;20230;-71
2021/01/11 05:56:55;;;;;;;15.48;9.40;;;-7.60;99.90;;;;;;4989625;28;20210;-72
2021/01/11 05:59:21;;;;;;;16.55;10.73;;;-7.60;99.90;;;;;;4992116;28;20203;-72
2021/01/11 06:01:48;;;;;;;20.52;10.57;;;-7.70;99.90;;;;;;4989714;28;20214;-71
2021/01/11 06:04:14;;;;;;;20.08;11.18;;;-7.70;99.90;;;;;;4989486;28;20313;-71
2021/01/11 06:06:41;;;;;;;17.55;9.98;;;-7.70;99.90;;;;;;4989126;28;20223;-71
2021/01/11 06:09:09;;;;;;;20.38;11.65;;;-7.70;99.90;;;;;;4989895;28;20628;-71
2021/01/11 06:11:36;;;;;;;19.25;11.05;;;-7.70;99.90;;;;;;4989107;28;20335;-71
2021/01/11 06:14:04;;;;;;;18.48;10.70;;;-7.70;99.90;;;;;;4989030;28;20231;-71
2021/01/11 06:16:31;;;;;;;17.58;9.32;;;-7.60;99.90;;;;;;4989392;28;20264;-72
2021/01/11 06:18:58;;;;;;;17.95;10.00;;;-7.60;99.90;;;;;;4988742;28;20242;-72
2021/01/11 06:21:24;;;;;;;14.98;9.48;;;-7.70;99.90;;;;;;4989205;28;20556;-72
2021/01/11 06:24:15;;;;;;;13.85;8.48;;;-7.70;99.90;;;;;;4991478;28;20219;-72
2021/01/11 06:26:42;;;;;;;17.08;9.48;;;-7.80;99.90;;;;;;4989230;28;20591;-72
2021/01/11 06:29:28;;;;;;;18.45;9.48;;;-7.80;99.90;;;;;;4989056;28;20210;-72
2021/01/11 06:31:56;;;;;;;15.85;10.18;;;-7.80;99.90;;;;;;4988435;28;20710;-72
2021/01/11 06:34:33;;;;;;;17.75;9.23;;;-7.80;99.90;;;;;;4989226;28;20386;-72
2021/01/11 06:37:00;;;;;;;17.75;9.30;;;-7.80;99.90;;;;;;4988906;28;20544;-71
2021/01/11 06:39:31;;;;;;;13.65;9.18;;;-7.80;99.90;;;;;;4988918;28;20199;-71
2021/01/11 06:41:58;;;;;;;16.50;9.02;;;-7.80;99.90;;;;;;4987919;28;20250;-72
2021/01/11 06:44:26;;;;;;;16.73;9.45;;;-7.80;99.90;;;;;;4989065;28;20227;-72
2021/01/11 06:46:53;;;;;;;20.10;10.80;;;-7.80;99.90;;;;;;4995776;28;20219;-72
2021/01/11 06:49:27;;;;;;;16.30;8.90;;;-7.80;99.90;;;;;;4997921;28;20560;-72
2021/01/11 06:52:12;;;;;;;17.05;9.23;;;-7.70;99.90;;;;;;4992651;28;20280;-72
2021/01/11 06:54:41;;;;;;;16.00;9.82;;;-7.60;99.90;;;;;;4992693;28;20233;-71
2021/01/11 06:57:09;;;;;;;16.30;9.95;;;-7.60;99.90;;;;;;4992688;28;20314;-72
2021/01/11 06:59:38;;;;;;;12.18;7.85;;;-7.70;99.90;;;;;;4992876;28;20203;-71
2021/01/11 07:02:18;;;;;;;15.10;9.30;;;-7.80;99.90;;;;;;5003542;28;20252;-72
2021/01/11 07:04:45;;;;;;;17.65;9.30;;;-7.80;99.90;;;;;;5006848;28;20275;-72
2021/01/11 07:07:18;;;;;;;14.30;8.68;;;-7.80;99.90;;;;;;5004211;28;20229;-72
2021/01/11 07:09:51;;;;;;;17.08;9.00;;;-7.80;99.90;;;;;;5001789;28;20207;-73
2021/01/11 07:12:19;;;;;;;18.85;9.45;;;-7.90;99.90;;;;;;5000377;28;20195;-72
2021/01/11 07:15:01;;;;;;;20.40;14.23;;;-8.00;99.90;;;;;;5000444;28;20463;-72
2021/01/11 07:17:39;;;;;;;17.58;10.85;;;-7.90;99.90;;;;;;4990770;28;20206;-72
2021/01/11 07:20:07;;;;;;;15.40;10.02;;;-7.90;99.90;;;;;;4991786;28;20211;-73
2021/01/11 07:22:33;;;;;;;18.77;10.43;;;-7.90;99.90;;;;;;4995020;28;20202;-73
2021/01/11 07:25:07;;;;;;;16.60;9.80;;;-8.00;99.90;;;;;;4991201;28;20467;-73
2021/01/11 07:27:33;;;;;;;17.73;9.55;;;-8.00;99.90;;;;;;4992277;28;20246;-71
2021/01/11 07:29:59;;;;;;;18.35;9.55;;;-7.90;99.90;;;;;;5004086;28;20213;-70
2021/01/11 07:32:30;;;;;;;15.70;9.00;;;-7.80;99.90;;;;;;5007884;28;20618;-74
2021/01/11 07:34:59;;;;;;;14.43;10.10;;;-7.80;99.90;;;;;;5001916;28;20230;-71
2021/01/11 07:37:26;;;;;;;17.75;9.60;;;-7.80;99.90;;;;;;5002580;28;20689;-71
2021/01/11 07:39:52;;;;;;;18.67;10.52;;;-7.90;99.90;;;;;;5007827;28;20285;-71
2021/01/11 07:42:20;;;;;;;19.88;10.38;;;-7.90;99.90;;;;;;5010674;28;20214;-71
2021/01/11 07:44:46;;;;;;;15.27;9.35;;;-7.90;99.90;;;;;;5004749;28;20775;-71
2021/01/11 07:47:14;;;;;;;17.30;9.80;;;-7.80;99.90;;;;;;4991481;28;20254;-72
2021/01/11 07:49:42;;;;;;;15.18;9.57;;;-7.70;99.90;;;;;;4991271;28;20210;-71
2021/01/11 07:52:10;;;;;;;17.13;11.02;;;-7.70;99.90;;;;;;4993180;28;20582;-72
2021/01/11 07:54:37;;;;;;;14.82;9.48;;;-7.70;99.90;;;;;;4989508;28;20219;-72
2021/01/11 07:57:08;;;;;;;16.60;10.05;;;-7.60;99.90;;;;;;4990899;28;20199;-73
2021/01/11 07:59:35;;;;;;;15.13;9.50;;;-7.50;99.90;;;;;;4990625;28;20703;-75
2021/01/11 08:02:04;;;;;;;18.10;10.43;;;-7.30;99.90;;;;;;4990357;28;20666;-74
2021/01/11 08:04:36;;;;;;;13.77;9.20;;;-7.20;99.90;;;;;;5000598;28;20591;-74
2021/01/11 08:07:06;;;;;;;18.10;9.60;;;-7.00;99.90;;;;;;5010365;28;20706;-74
2021/01/11 08:09:34;;;;;;;18.42;9.93;;;-6.70;99.90;;;;;;5011143;28;20202;-74
2021/01/11 08:12:11;;;;;;;13.15;8.80;;;-6.40;99.90;;;;;;5009614;28;20206;-75
2021/01/11 08:14:39;;;;;;;15.40;9.95;;;-5.80;99.90;;;;;;5010394;28;20599;-73
2021/01/11 08:17:11;;;;;;;15.95;10.20;;;-5.20;99.90;;;;;;5008908;28;20761;-73
2021/01/11 08:19:40;;;;;;;15.80;10.05;;;-4.40;99.90;;;;;;5010895;28;20261;-75
2021/01/11 08:22:07;;;;;;;14.90;9.88;;;-3.70;99.90;;;;;;5009745;28;20297;-74
2021/01/11 08:24:34;;;;;;;18.23;10.45;;;-3.00;99.90;;;;;;4991609;28;20386;-73
2021/01/11 08:27:06;;;;;;;12.07;9.25;;;-2.30;99.90;;;;;;4990523;28;20726;-73
2021/01/11 08:29:36;;;;;;;16.80;9.45;;;-2.00;99.90;;;;;;4991529;28;20210;-74
2021/01/11 08:32:06;;;;;;;15.13;9.80;;;-1.40;99.90;;;;;;4990300;28;20637;-74
2021/01/11 08:34:32;;;;;;;15.65;9.35;;;-0.80;99.90;;;;;;4990891;28;20419;-74
2021/01/11 08:36:59;;;;;;;16.25;10.00;;;-0.60;99.90;;;;;;4990451;28;20590;-75
2021/01/11 08:39:25;;;;;;;17.50;11.20;;;-0.60;99.90;;;;;;4990915;28;20631;-74
2021/01/11 08:41:54;;;;;;;14.02;10.00;;;-0.90;99.90;;;;;;4990056;28;20214;-75
2021/01/11 08:44:29;;;;;;;13.20;9.68;;;-1.00;99.90;;;;;;4990933;28;20620;-75
2021/01/11 08:47:08;;;;;;;15.35;10.60;;;-1.10;99.90;;;;;;4990374;28;20301;-74
2021/01/11 08:49:35;;;;;;;16.08;10.18;;;-1.30;99.90;;;;;;4990492;28;20203;-75
2021/01/11 08:52:09;;;;;;;16.15;10.93;;;-1.40;99.90;;;;;;4991290;28;20348;-76
2021/01/11 08:54:36;;;;;;;13.10;9.60;;;-1.40;99.90;;;;;;4990399;28;20226;-74
2021/01/11 08:57:13;;;;;;;15.98;10.00;;;-1.60;99.90;;;;;;4990400;28;20582;-71
2021/01/11 08:59:50;;;;;;;14.02;9.25;;;-2.00;99.90;;;;;;4990788;28;20199;-75
2021/01/11 09:02:27;;;;;;;14.27;8.73;;;-2.50;99.90;;;;;;4990641;28;20194;-75
2021/01/11 09:04:54;;;;;;;15.75;9.50;;;-2.70;99.90;;;;;;4995028;28;20222;-74
2021/01/11 09:07:30;;;;;;;16.75;10.73;;;-2.80;99.90;;;;;;4996048;28;20218;-73
2021/01/11 09:09:57;;;;;;;15.25;9.50;;;-2.80;99.90;;;;;;4993199;28;20202;-75
2021/01/11 09:12:31;;;;;;;16.48;9.50;;;-2.80;99.90;;;;;;5005609;28;20203;-74
2021/01/11 09:14:58;;;;;;;13.18;9.48;;;-2.90;99.90;;;;;;5009048;28;20214;-73
2021/01/11 09:17:29;;;;;;;14.55;9.98;;;-3.00;99.90;;;;;;5009786;28;20229;-75
2021/01/11 09:19:59;;;;;;;15.18;9.77;;;-3.20;99.90;;;;;;5009548;28;20261;-71
2021/01/11 09:22:34;;;;;;;17.48;10.50;;;-3.00;99.90;;;;;;5007525;28;20215;-74
2021/01/11 09:25:02;;;;;;;13.68;9.60;;;-3.00;99.90;;;;;;4988813;28;20492;-73
2021/01/11 09:27:28;;;;;;;14.75;9.73;;;-2.60;99.90;;;;;;4989756;28;20644;-73
2021/01/11 09:29:55;;;;;;;13.20;8.93;;;-1.10;99.90;;;;;;4989157;28;20211;-74
2021/01/11 09:32:21;;;;;;;9.98;7.82;;;0.70;99.90;;;;;;4989174;28;20207;-73
2021/01/11 09:34:49;;;;;;;10.90;8.40;;;1.50;99.90;;;;;;4989168;28;20227;-73
2021/01/11 09:37:15;;;;;;;13.48;9.55;;;2.00;99.90;;;;;;4989350;28;20210;-73
2021/01/11 09:39:42;;;;;;;9.88;8.20;;;3.00;99.90;;;;;;4989596;28;20302;-74
2021/01/11 09:42:09;;;;;;;9.63;8.27;;;3.90;99.90;;;;;;4988615;28;20211;-73
2021/01/11 09:44:35;;;;;;;14.27;8.80;;;5.30;99.30;;;;;;4989585;28;20394;-73
2021/01/11 09:47:05;;;;;;;12.57;9.38;;;6.10;96.40;;;;;;4988891;28;20289;-73
2021/01/11 09:49:31;;;;;;;12.10;9.10;;;6.50;94.90;;;;;;4996682;28;20210;-73
2021/01/11 09:51:58;;;;;;;11.90;8.40;;;6.30;94.90;;;;;;5003266;28;20410;-74
2021/01/11 09:54:25;;;;;;;11.02;8.85;;;5.90;94.60;;;;;;4991614;28;20234;-74
2021/01/11 09:56:51;;;;;;;11.70;8.40;;;6.10;93.80;;;;;;4989548;28;20679;-73
2021/01/11 09:59:17;;;;;;;9.82;7.85;;;6.00;93.20;;;;;;4989214;28;20203;-73
2021/01/11 10:01:45;;;;;;;14.27;9.27;;;6.50;94.60;;;;;;4998866;28;20206;-77
2021/01/11 10:04:13;;;;;;;12.43;9.23;;;7.10;94.00;;;;;;5007670;28;20235;-74
2021/01/11 10:06:42;;;;;;;9.75;7.85;;;8.00;92.00;;;;;;5008544;28;20226;-74
2021/01/11 10:09:09;;;;;;;10.82;8.57;;;9.10;91.10;;;;;;5008546;28;20202;-74
2021/01/11 10:11:36;;;;;;;12.35;8.30;;;9.90;87.90;;;;;;5008166;28;20198;-74
2021/01/11 10:14:03;;;;;;;10.75;8.35;;;9.40;88.10;;;;;;5008150;28;20230;-78
2021/01/11 10:16:29;;;;;;;13.20;8.85;;;9.70;85.60;;;;;;5008526;28;20198;-75
2021/01/11 10:18:55;;;;;;;10.90;8.05;;;9.80;86.60;;;;;;5007676;28;20210;-74
2021/01/11 10:21:22;;;;;;;12.80;9.70;;;10.40;85.80;;;;;;5005551;28;20209;-74
2021/01/11 10:23:48;;;;;;;10.65;9.55;;;10.40;86.30;;;;;;4994836;28;20265;-74
2021/01/11 10:26:17;;;;;;;10.27;8.13;;;11.00;80.70;;;;;;4988796;28;20258;-75
2021/01/11 10:28:43;;;;;;;13.43;9.10;;;10.90;82.60;;;;;;4989247;28;20214;-76
2021/01/11 10:31:09;;;;;;;11.50;9.05;;;11.30;80.90;;;;;;5008231;28;20209;-76
2021/01/11 10:33:35;;;;;;;11.20;8.05;;;10.90;76.70;;;;;;5007818;28;20198;-72
2021/01/11 10:36:01;;;;;;;11.35;8.80;;;9.40;81.50;;;;;;5008122;28;20214;-74
2021/01/11 10:38:28;;;;;;;12.57;8.77;;;9.10;81.60;;;;;;5008446;28;20206;-73
2021/01/11 10:40:54;;;;;;;10.43;9.10;;;8.40;84.10;;;;;;5008164;28;20704;-73
2021/01/11 10:43:21;;;;;;;12.00;8.57;;;8.60;84.00;;;;;;5007976;28;20206;-71
2021/01/11 10:45:48;;;;;;;12.80;10.00;;;8.60;82.80;;;;;;5008341;28;20208;-73
2021/01/11 10:48:14;;;;;;;10.50;8.05;;;9.00;84.80;;;;;;5008337;28;20198;-71
2021/01/11 10:50:40;;;;;;;12.80;9.65;;;9.20;83.40;;;;;;5008258;28;20670;-73
2021/01/11 10:53:06;;;;;;;10.25;9.10;;;9.90;82.20;;;;;;5000213;28;20211;-73
2021/01/11 10:55:32;;;;;;;11.60;8.70;;;9.70;82.40;;;;;;4988542;28;20711;-73
2021/01/11 10:57:59;;;;;;;12.10;8.70;;;10.50;79.90;;;;;;4988982;28;20211;-76
2021/01/11 11:00:26;;;;;;;9.82;8.65;;;11.10;79.30;;;;;;4989731;28;20548;-74
2021/01/11 11:02:53;;;;;;;8.88;7.97;;;11.40;76.90;;;;;;4993104;28;20203;-73
2021/01/11 11:05:19;;;;;;;11.48;8.82;;;11.40;77.60;;;;;;5158727;23;20603;-73
2021/01/11 11:07:45;;;;;;;10.23;8.68;;;11.80;74.70;;;;;;5001105;28;20225;-73
2021/01/11 11:10:13;;;;;;;9.77;8.43;;;11.20;75.20;;;;;;5009142;28;20209;-73
2021/01/11 11:12:39;;;;;;;9.60;8.60;;;10.20;76.20;;;;;;5007808;28;20299;-73
2021/01/11 11:15:07;;;;;;;12.38;9.25;;;9.90;77.40;;;;;;5007719;28;20230;-73
2021/01/11 11:17:34;;;;;;;10.40;8.05;;;9.00;79.50;;;;;;5008149;28;20191;-73
2021/01/11 11:20:00;;;;;;;8.60;7.18;;;7.30;80.80;;;;;;5008679;28;20206;-72
2021/01/11 11:22:27;;;;;;;12.60;8.30;;;5.00;85.30;;;;;;5008476;28;20677;-75
2021/01/11 11:24:53;;;;;;;13.65;8.73;;;3.60;89.90;;;;;;5008374;28;20222;-74
2021/01/11 11:27:20;;;;;;;10.32;7.97;;;3.00;90.90;;;;;;5008893;28;20226;-75
2021/01/11 11:29:48;;;;;;;12.15;7.65;;;2.80;91.50;;;;;;5007964;28;20199;-73
2021/01/11 11:32:16;;;;;;;12.68;10.32;;;3.50;91.00;;;;;;5007732;28;20198;-73
2021/01/11 11:34:43;;;;;;;12.05;8.18;;;4.50;90.40;;;;;;5011280;28;20226;-73
2021/01/11 11:37:09;;;;;;;9.52;8.10;;;5.10;88.90;;;;;;5011936;28;20203;-74
2021/01/11 11:39:35;;;;;;;10.45;8.65;;;4.60;90.00;;;;;;5010254;28;20674;-74
2021/01/11 11:42:02;;;;;;;10.13;7.90;;;4.40;90.60;;;;;;5011909;28;20213;-73
2021/01/11 11:44:31;;;;;;;10.63;8.00;;;4.80;90.40;;;;;;5012053;28;20250;-76
2021/01/11 11:46:57;;;;;;;12.35;8.80;;;6.00;88.80;;;;;;5011983;28;20715;-76
2021/01/11 11:49:23;;;;;;;12.07;8.65;;;7.60;88.20;;;;;;5011317;28;20682;-77
2021/01/11 11:51:50;;;;;;;10.15;8.43;;;9.30;82.80;;;;;;5009742;28;20202;-76
2021/01/11 11:54:16;;;;;;;10.60;8.65;;;9.00;82.70;;;;;;5011281;28;20222;-73
2021/01/11 11:56:43;;;;;;;9.30;7.75;;;8.60;82.70;;;;;;5011644;28;20198;-74
2021/01/11 11:59:10;;;;;;;9.35;8.05;;;9.70;80.70;;;;;;5011680;28;20272;-74
2021/01/11 12:01:37;;;;;;;11.27;8.02;;;9.80;79.10;;;;;;5010288;28;20202;-76
2021/01/11 12:04:04;;;;;;;11.18;8.77;;;9.50;80.40;;;;;;5011702;28;20230;-78
2021/01/11 12:06:37;;;;;;;9.63;7.65;;;9.40;80.50;;;;;;5015982;28;20226;-77
2021/01/11 12:09:06;;;;;;;13.07;9.95;;;10.00;79.40;;;;;;5015783;28;20206;-74
2021/01/11 12:11:42;;;;;;;14.90;8.48;;;9.90;79.70;;;;;;5014143;28;20256;-74
2021/01/11 12:14:09;;;;;;;10.48;8.25;;;9.90;80.80;;;;;;5012529;28;20744;-73
2021/01/11 12:16:35;;;;;;;9.65;8.27;;;9.60;81.70;;;;;;5014030;28;20443;-73
2021/01/11 12:19:02;;;;;;;11.18;8.35;;;9.70;82.20;;;;;;5012420;28;20206;-73
2021/01/11 12:21:33;;;;;;;11.77;8.73;;;9.90;80.70;;;;;;5012313;28;20213;-73
2021/01/11 12:24:00;;;;;;;10.70;8.48;;;9.50;81.00;;;;;;5014538;28;20233;-73
2021/01/11 12:26:27;;;;;;;9.63;7.47;;;9.40;80.30;;;;;;5013792;28;20222;-73
2021/01/11 12:28:55;;;;;;;10.43;7.95;;;9.50;79.80;;;;;;5014691;28;20207;-73
2021/01/11 12:31:28;;;;;;;11.73;8.57;;;9.20;79.90;;;;;;5013256;28;20202;-73
2021/01/11 12:33:54;;;;;;;10.70;7.70;;;8.80;80.90;;;;;;5011377;28;20669;-70
2021/01/11 12:36:24;;;;;;;10.07;8.43;;;9.10;80.50;;;;;;5011844;28;20203;-73
2021/01/11 12:38:51;;;;;;;10.68;9.10;;;8.40;81.40;;;;;;5010603;28;20206;-71
2021/01/11 12:41:19;;;;;;;11.43;8.30;;;8.10;82.80;;;;;;5010673;28;20222;-73
2021/01/11 12:43:46;;;;;;;9.90;8.10;;;7.70;84.40;;;;;;5010523;28;20567;-73
2021/01/11 12:46:13;;;;;;;9.27;8.27;;;7.20;83.80;;;;;;5011357;28;20611;-72